Time;durP1;ratioP1;P1;durP2;ratioP2;P2;SDS_P1;SDS_P2;PMS_P1;PMS_P2;Temp;Humidity;BMP_temperature;BMP_pressure;BME280_temperature;BME280_humidity;BME280_pressure;Samples;Min_cycle;Max_cycle;Signal;HPM_P1;HPM_P2
2022/06/23 00:01:16;;;;;;;;;;;15.00;99.90;;;;;;5092427;27;39472;-61
2022/06/23 00:03:43;;;;;;;;;;;15.00;99.90;;;;;;5090905;27;36474;-62
2022/06/23 00:06:20;;;;;;;;;;;15.00;99.90;;;;;;5092318;27;38034;-61
2022/06/23 00:08:49;;;;;;;;;;;15.00;99.90;;;;;;5092669;27;36680;-61
2022/06/23 00:11:20;;;;;;;;;;;15.00;99.90;;;;;;5092221;27;38096;-61
2022/06/23 00:13:47;;;;;;;;;;;15.00;99.90;;;;;;5093153;27;38516;-61
2022/06/23 00:16:25;;;;;;;;;;;15.00;99.90;;;;;;5092173;27;37836;-61
2022/06/23 00:18:52;;;;;;;;;;;15.00;99.90;;;;;;5091338;27;35101;-61
2022/06/23 00:21:22;;;;;;;;;;;15.00;99.90;;;;;;5092965;27;37621;-61
2022/06/23 00:23:52;;;;;;;;;;;15.00;99.90;;;;;;5093105;27;36819;-61
2022/06/23 00:26:20;;;;;;;;;;;14.90;99.90;;;;;;5090784;27;38158;-61
2022/06/23 00:28:50;;;;;;;;;;;14.90;99.90;;;;;;5091533;28;38226;-61
2022/06/23 00:31:25;;;;;;;;;;;14.90;99.90;;;;;;5092210;27;36516;-61
2022/06/23 00:33:52;;;;;;;;;;;14.90;99.90;;;;;;5091688;27;38204;-61
2022/06/23 00:36:29;;;;;;;;;;;15.00;99.90;;;;;;5090398;27;37392;-61
2022/06/23 00:38:58;;;;;;;;;;;15.00;99.90;;;;;;5091219;27;36237;-61
2022/06/23 00:41:28;;;;;;;;;;;15.00;99.90;;;;;;5091831;27;38925;-61
2022/06/23 00:43:56;;;;;;;;;;;15.00;99.90;;;;;;5091133;27;38765;-61
2022/06/23 00:46:27;;;;;;;;;;;15.00;99.90;;;;;;5091408;27;38580;-61
2022/06/23 00:48:56;;;;;;;;;;;15.00;99.90;;;;;;5091280;27;35707;-60
2022/06/23 00:51:26;;;;;;;;;;;14.90;99.90;;;;;;5091315;27;36705;-60
2022/06/23 00:53:56;;;;;;;;;;;15.00;99.90;;;;;;5091189;27;38532;-61
2022/06/23 00:56:32;;;;;;;;;;;15.00;99.90;;;;;;5091941;27;35867;-61
2022/06/23 00:59:01;;;;;;;;;;;14.90;99.90;;;;;;5090968;27;36544;-61
2022/06/23 01:01:32;;;;;;;;;;;14.90;99.90;;;;;;5091318;27;37622;-61
2022/06/23 01:04:01;;;;;;;;;;;14.90;99.90;;;;;;5091425;27;37716;-61
2022/06/23 01:06:33;;;;;;;;;;;14.80;99.90;;;;;;5091453;27;39620;-61
2022/06/23 01:09:01;;;;;;;;;;;14.80;99.90;;;;;;5091635;28;36584;-61
2022/06/23 01:11:34;;;;;;;;;;;14.80;99.90;;;;;;5091130;27;37751;-61
2022/06/23 01:14:06;;;;;;;;;;;14.80;99.90;;;;;;5091830;27;38014;-61
2022/06/23 01:16:39;;;;;;;;;;;14.80;99.90;;;;;;5091106;27;36136;-61
2022/06/23 01:19:11;;;;;;;;;;;14.80;99.90;;;;;;5091422;27;35651;-61
2022/06/23 01:21:42;;;;;;;;;;;14.80;99.90;;;;;;5092182;27;37799;-61
2022/06/23 01:24:16;;;;;;;;;;;14.60;99.90;;;;;;5091671;27;38081;-61
2022/06/23 01:27:13;;;;;;;;;;;14.60;99.90;;;;;;5091147;28;37176;-61
2022/06/23 01:29:44;;;;;;;;;;;14.60;99.90;;;;;;5091659;27;35883;-60
2022/06/23 01:32:15;;;;;;;;;;;14.60;99.90;;;;;;5090696;27;38921;-61
2022/06/23 01:34:46;;;;;;;;;;;14.60;99.90;;;;;;5091763;27;38077;-61
2022/06/23 01:37:16;;;;;;;;;;;14.60;99.90;;;;;;5090886;27;37268;-61
2022/06/23 01:39:47;;;;;;;;;;;14.60;99.90;;;;;;5094005;27;35248;-61
2022/06/23 01:42:18;;;;;;;;;;;14.60;99.90;;;;;;5094914;27;37330;-61
2022/06/23 01:44:50;;;;;;;;;;;14.60;99.90;;;;;;5094560;27;39446;-61
2022/06/23 01:47:20;;;;;;;;;;;14.60;99.90;;;;;;5094697;27;36590;-61
2022/06/23 01:49:49;;;;;;;;;;;14.60;99.90;;;;;;5092664;27;36868;-61
2022/06/23 01:52:18;;;;;;;;;;;14.50;99.90;;;;;;5093488;27;38131;-61
2022/06/23 01:54:47;;;;;;;;;;;14.60;99.90;;;;;;5094230;27;38947;-61
2022/06/23 01:57:20;;;;;;;;;;;14.60;99.90;;;;;;5095473;27;38042;-61
2022/06/23 01:59:53;;;;;;;;;;;14.60;99.90;;;;;;5094879;27;36120;-61
2022/06/23 02:02:27;;;;;;;;;;;14.60;99.90;;;;;;5093520;27;38001;-61
2022/06/23 02:04:59;;;;;;;;;;;14.50;99.90;;;;;;5094150;27;38857;-61
2022/06/23 02:07:31;;;;;;;;;;;14.50;99.90;;;;;;5093825;27;32500;-62
2022/06/23 02:10:02;;;;;;;;;;;14.50;99.90;;;;;;5094554;27;38346;-61
2022/06/23 02:12:32;;;;;;;;;;;14.50;99.90;;;;;;5095332;27;38759;-61
2022/06/23 02:15:06;;;;;;;;;;;14.50;99.90;;;;;;5094469;27;37849;-61
2022/06/23 02:17:36;;;;;;;;;;;14.50;99.90;;;;;;5095023;27;36909;-61
2022/06/23 02:20:15;;;;;;;;;;;14.50;99.90;;;;;;5092861;27;36599;-61
2022/06/23 02:22:44;;;;;;;;;;;14.50;99.90;;;;;;5093617;28;37475;-61
2022/06/23 02:25:15;;;;;;;;;;;14.50;99.90;;;;;;5093912;27;39576;-61
2022/06/23 02:27:45;;;;;;;;;;;14.50;99.90;;;;;;5095038;27;38139;-61
2022/06/23 02:30:15;;;;;;;;;;;14.50;99.90;;;;;;5092847;27;36240;-61
2022/06/23 02:32:50;;;;;;;;;;;14.50;99.90;;;;;;5095250;27;38125;-61
2022/06/23 02:35:21;;;;;;;;;;;14.50;99.90;;;;;;5094084;27;38681;-61
2022/06/23 02:37:54;;;;;;;;;;;14.50;99.90;;;;;;5093490;27;38232;-60
2022/06/23 02:40:23;;;;;;;;;;;14.60;99.90;;;;;;5093558;27;36934;-61
2022/06/23 02:42:51;;;;;;;;;;;14.50;99.90;;;;;;5093847;27;38407;-61
2022/06/23 02:45:29;;;;;;;;;;;14.50;99.90;;;;;;5093895;27;38228;-60
2022/06/23 02:48:05;;;;;;;;;;;14.60;99.90;;;;;;5093924;27;38965;-61
2022/06/23 02:50:45;;;;;;;;;;;14.60;99.90;;;;;;5089382;27;37809;-62
2022/06/23 02:53:29;;;;;;;;;;;14.60;99.90;;;;;;5092761;27;37515;-61
2022/06/23 02:56:14;;;;;;;;;;;14.60;99.90;;;;;;5091781;27;37458;-60
2022/06/23 02:58:44;;;;;;;;;;;14.60;99.90;;;;;;5092582;27;36681;-61
2022/06/23 03:01:18;;;;;;;;;;;14.60;99.90;;;;;;5092059;27;36132;-61
2022/06/23 03:03:48;;;;;;;;;;;14.60;99.90;;;;;;5092881;27;36618;-61
2022/06/23 03:06:19;;;;;;;;;;;14.60;99.90;;;;;;5093626;27;39367;-61
2022/06/23 03:08:50;;;;;;;;;;;14.60;99.90;;;;;;5093914;27;37310;-61
2022/06/23 03:11:51;;;;;;;;;;;14.60;99.90;;;;;;5093368;27;37679;-61
2022/06/23 03:14:08;;;;;;;;;;;14.60;99.90;;;;;;5093739;28;38180;-61
2022/06/23 03:16:39;;;;;;;;;;;14.60;99.90;;;;;;5093581;28;38087;-61
2022/06/23 03:19:09;;;;;;;;;;;14.60;99.90;;;;;;5093102;27;39668;-61
2022/06/23 03:21:41;;;;;;;;;;;14.60;99.90;;;;;;5091965;27;36500;-61
2022/06/23 03:24:12;;;;;;;;;;;14.50;99.90;;;;;;5094202;27;37825;-61
2022/06/23 03:26:41;;;;;;;;;;;14.50;99.90;;;;;;5093801;27;38644;-61
2022/06/23 03:29:10;;;;;;;;;;;14.50;99.90;;;;;;5093216;27;37359;-61
2022/06/23 03:31:41;;;;;;;;;;;14.50;99.90;;;;;;5092330;27;34916;-60
2022/06/23 03:34:16;;;;;;;;;;;14.60;99.90;;;;;;5092522;27;37537;-61
2022/06/23 03:36:44;;;;;;;;;;;14.60;99.90;;;;;;5094454;28;38518;-61
2022/06/23 03:42:05;;;;;;;;;;;14.60;99.90;;;;;;5093091;28;37761;-61
2022/06/23 03:44:34;;;;;;;;;;;14.60;99.90;;;;;;5091862;28;38682;-61
2022/06/23 03:47:04;;;;;;;;;;;14.60;99.90;;;;;;5093159;27;37693;-61
2022/06/23 03:49:38;;;;;;;;;;;14.60;99.90;;;;;;5092250;27;37199;-61
2022/06/23 03:52:14;;;;;;;;;;;14.60;99.90;;;;;;5092944;28;36391;-60
2022/06/23 03:54:46;;;;;;;;;;;14.70;99.90;;;;;;5093112;28;38367;-61
2022/06/23 03:57:17;;;;;;;;;;;14.70;99.90;;;;;;5092604;27;37850;-61
2022/06/23 04:00:00;;;;;;;;;;;14.80;99.90;;;;;;5092468;28;36767;-61
2022/06/23 04:02:31;;;;;;;;;;;14.80;99.90;;;;;;5092465;27;36847;-61
2022/06/23 04:05:00;;;;;;;;;;;14.80;99.90;;;;;;5092633;27;36439;-60
2022/06/23 04:07:36;;;;;;;;;;;14.90;99.90;;;;;;5093264;27;38672;-61
2022/06/23 04:10:04;;;;;;;;;;;14.90;99.90;;;;;;5093169;28;37718;-61
2022/06/23 04:12:32;;;;;;;;;;;15.00;99.90;;;;;;5092619;27;36931;-61
2022/06/23 04:15:02;;;;;;;;;;;15.00;99.90;;;;;;5093310;28;37884;-61
2022/06/23 04:17:38;;;;;;;;;;;15.00;99.90;;;;;;5092181;27;37674;-61
2022/06/23 04:20:11;;;;;;;;;;;15.10;99.90;;;;;;5090141;27;37782;-61
2022/06/23 04:22:39;;;;;;;;;;;15.20;99.90;;;;;;5091990;27;35765;-61
2022/06/23 04:25:08;;;;;;;;;;;15.20;99.90;;;;;;5092767;27;36340;-61
2022/06/23 04:27:38;;;;;;;;;;;15.30;99.90;;;;;;5091938;27;36644;-61
2022/06/23 04:30:06;;;;;;;;;;;15.40;99.90;;;;;;5092181;27;37816;-59
2022/06/23 04:32:36;;;;;;;;;;;15.50;99.90;;;;;;5093255;27;36543;-61
2022/06/23 04:35:08;;;;;;;;;;;15.60;99.90;;;;;;5091328;28;36942;-61
2022/06/23 04:37:40;;;;;;;;;;;15.60;99.90;;;;;;5091300;27;37791;-61
2022/06/23 04:40:21;;;;;;;;;;;15.80;99.90;;;;;;5091588;27;38147;-61
2022/06/23 04:42:51;;;;;;;;;;;15.90;99.90;;;;;;5092542;28;35124;-61
2022/06/23 04:45:29;;;;;;;;;;;16.10;99.90;;;;;;5091519;27;37994;-61
2022/06/23 04:47:59;;;;;;;;;;;16.10;99.90;;;;;;5092263;28;37724;-61
2022/06/23 04:50:36;;;;;;;;;;;16.30;99.90;;;;;;5092806;27;38234;-61
2022/06/23 04:53:03;;;;;;;;;;;16.40;99.90;;;;;;5092300;27;37775;-61
2022/06/23 04:55:32;;;;;;;;;;;16.50;99.90;;;;;;5092440;27;39231;-61
2022/06/23 04:58:03;;;;;;;;;;;16.60;99.90;;;;;;5092301;27;36987;-61
2022/06/23 05:00:37;;;;;;;;;;;16.70;99.90;;;;;;5091775;28;38181;-61
2022/06/23 05:03:12;;;;;;;;;;;16.80;99.90;;;;;;5091429;27;37185;-61
2022/06/23 05:05:40;;;;;;;;;;;16.90;99.90;;;;;;5089855;27;36566;-61
2022/06/23 05:08:08;;;;;;;;;;;17.00;99.90;;;;;;5092303;27;38037;-61
2022/06/23 05:10:37;;;;;;;;;;;17.10;99.90;;;;;;5091695;27;37687;-61
2022/06/23 05:13:06;;;;;;;;;;;17.20;99.90;;;;;;5093398;27;37149;-62
2022/06/23 05:15:36;;;;;;;;;;;17.30;99.90;;;;;;5096153;27;37499;-61
2022/06/23 05:18:06;;;;;;;;;;;17.40;99.90;;;;;;5095429;27;37665;-60
2022/06/23 05:20:36;;;;;;;;;;;17.40;99.90;;;;;;5094606;27;38176;-60
2022/06/23 05:23:03;;;;;;;;;;;17.50;99.90;;;;;;5096819;27;36307;-61
2022/06/23 05:25:36;;;;;;;;;;;17.50;99.90;;;;;;5097667;27;37611;-61
2022/06/23 05:28:05;;;;;;;;;;;17.60;99.90;;;;;;5097944;27;39197;-60
2022/06/23 05:30:34;;;;;;;;;;;17.80;99.90;;;;;;5097849;27;37135;-60
2022/06/23 05:33:04;;;;;;;;;;;17.90;99.90;;;;;;5097704;28;37773;-61
2022/06/23 05:35:33;;;;;;;;;;;18.00;99.90;;;;;;5096658;27;36647;-61
2022/06/23 05:38:04;;;;;;;;;;;18.10;99.90;;;;;;5097000;27;39429;-61
2022/06/23 05:40:33;;;;;;;;;;;18.20;99.90;;;;;;5097406;27;35911;-60
2022/06/23 05:43:01;;;;;;;;;;;18.20;99.90;;;;;;5097414;27;36391;-61
2022/06/23 05:45:29;;;;;;;;;;;18.30;99.90;;;;;;5096800;27;36496;-61
2022/06/23 05:47:57;;;;;;;;;;;18.40;99.90;;;;;;5096187;28;40922;-61
2022/06/23 05:50:27;;;;;;;;;;;18.40;99.90;;;;;;5095785;27;36029;-60
2022/06/23 05:52:57;;;;;;;;;;;18.50;99.90;;;;;;5095517;27;37249;-61
2022/06/23 05:55:30;;;;;;;;;;;18.60;99.90;;;;;;5096731;27;36464;-61
2022/06/23 05:57:58;;;;;;;;;;;18.70;99.90;;;;;;5097276;27;36657;-61
2022/06/23 06:00:27;;;;;;;;;;;18.80;99.90;;;;;;5097582;27;36875;-61
2022/06/23 06:02:57;;;;;;;;;;;18.90;99.90;;;;;;5097437;27;37322;-60
2022/06/23 06:05:29;;;;;;;;;;;19.00;99.90;;;;;;5096817;27;37780;-61
2022/06/23 06:07:56;;;;;;;;;;;19.10;99.90;;;;;;5094170;27;37730;-60
2022/06/23 06:10:26;;;;;;;;;;;19.10;99.90;;;;;;5090233;27;37777;-61
2022/06/23 06:12:55;;;;;;;;;;;19.20;99.90;;;;;;5090895;27;36101;-60
2022/06/23 06:15:23;;;;;;;;;;;19.30;99.90;;;;;;5091270;27;37521;-60
2022/06/23 06:17:54;;;;;;;;;;;19.40;99.90;;;;;;5090475;28;37646;-60
2022/06/23 06:20:23;;;;;;;;;;;19.40;99.90;;;;;;5091351;28;37680;-60
2022/06/23 06:22:58;;;;;;;;;;;19.50;99.90;;;;;;5090146;27;37003;-61
2022/06/23 06:25:26;;;;;;;;;;;19.60;99.90;;;;;;5089971;27;37511;-60
2022/06/23 06:27:56;;;;;;;;;;;19.80;99.90;;;;;;5090837;27;36943;-61
2022/06/23 06:30:27;;;;;;;;;;;19.80;99.90;;;;;;5090750;27;36951;-60
2022/06/23 06:32:54;;;;;;;;;;;19.90;99.90;;;;;;5090950;27;37936;-60
2022/06/23 06:35:27;;;;;;;;;;;20.00;99.90;;;;;;5090367;27;37618;-60
2022/06/23 06:37:57;;;;;;;;;;;20.10;99.90;;;;;;5089707;28;39440;-61
2022/06/23 06:40:24;;;;;;;;;;;20.20;99.90;;;;;;5087881;27;38329;-61
2022/06/23 06:42:52;;;;;;;;;;;20.30;99.80;;;;;;5088580;27;36396;-60
2022/06/23 06:45:23;;;;;;;;;;;20.40;99.90;;;;;;5089448;27;38363;-60
2022/06/23 06:47:50;;;;;;;;;;;20.50;98.90;;;;;;5090763;27;38512;-60
2022/06/23 06:50:25;;;;;;;;;;;20.50;99.40;;;;;;5089582;27;36263;-60
2022/06/23 06:52:52;;;;;;;;;;;20.60;99.80;;;;;;5089830;27;36417;-60
2022/06/23 06:55:21;;;;;;;;;;;20.70;98.90;;;;;;5090285;27;36441;-60
2022/06/23 06:57:51;;;;;;;;;;;20.80;98.40;;;;;;5090761;27;36686;-60
2022/06/23 07:00:22;;;;;;;;;;;20.90;98.50;;;;;;5090476;27;37345;-61
2022/06/23 07:02:51;;;;;;;;;;;20.90;98.40;;;;;;5090998;27;36632;-60
2022/06/23 07:05:21;;;;;;;;;;;21.00;97.50;;;;;;5090062;27;37774;-60
2022/06/23 07:07:51;;;;;;;;;;;21.10;97.90;;;;;;5090455;27;37351;-60
2022/06/23 07:10:25;;;;;;;;;;;21.30;97.80;;;;;;5085084;27;37344;-60
2022/06/23 07:12:54;;;;;;;;;;;21.60;96.70;;;;;;5083154;27;37973;-61
2022/06/23 07:15:26;;;;;;;;;;;21.70;95.50;;;;;;5086909;27;37656;-60
2022/06/23 07:17:54;;;;;;;;;;;22.00;96.30;;;;;;5085739;27;38453;-60
2022/06/23 07:20:22;;;;;;;;;;;22.00;96.20;;;;;;5087220;27;38104;-61
2022/06/23 07:22:53;;;;;;;;;;;22.10;97.20;;;;;;5085465;27;36581;-60
2022/06/23 07:25:21;;;;;;;;;;;22.20;96.50;;;;;;5084179;27;37788;-60
2022/06/23 07:27:51;;;;;;;;;;;22.10;96.20;;;;;;5087049;28;38561;-60
2022/06/23 07:30:19;;;;;;;;;;;22.00;96.40;;;;;;5087343;27;37195;-60
2022/06/23 07:32:50;;;;;;;;;;;22.00;96.90;;;;;;5087806;28;37992;-60
2022/06/23 07:35:22;;;;;;;;;;;22.00;97.30;;;;;;5087797;27;37579;-60
2022/06/23 07:37:51;;;;;;;;;;;22.00;96.70;;;;;;5087569;27;37832;-60
2022/06/23 07:40:20;;;;;;;;;;;22.00;96.60;;;;;;5086236;27;37101;-60
2022/06/23 07:42:51;;;;;;;;;;;22.00;96.70;;;;;;5087482;27;36681;-60
2022/06/23 07:45:19;;;;;;;;;;;22.10;97.00;;;;;;5087447;27;38308;-60
2022/06/23 07:47:48;;;;;;;;;;;22.10;97.00;;;;;;5088126;27;38061;-61
2022/06/23 07:50:15;;;;;;;;;;;22.10;96.30;;;;;;5087798;27;37438;-61
2022/06/23 07:52:42;;;;;;;;;;;22.30;96.90;;;;;;5088188;27;35148;-60
2022/06/23 07:55:16;;;;;;;;;;;22.30;96.70;;;;;;5087610;27;38457;-61
2022/06/23 07:57:43;;;;;;;;;;;22.40;97.00;;;;;;5088826;28;38614;-60
2022/06/23 08:00:11;;;;;;;;;;;22.50;96.70;;;;;;5087410;28;35758;-60
2022/06/23 08:02:42;;;;;;;;;;;22.60;96.90;;;;;;5088446;27;36338;-60
2022/06/23 08:05:13;;;;;;;;;;;22.70;95.20;;;;;;5087087;27;37538;-60
2022/06/23 08:07:40;;;;;;;;;;;22.70;95.80;;;;;;5087296;27;38571;-60
2022/06/23 08:10:09;;;;;;;;;;;22.80;96.30;;;;;;5086809;27;37474;-60
2022/06/23 08:12:53;;;;;;;;;;;22.90;95.90;;;;;;5083333;27;36159;-60
2022/06/23 08:18:11;;;;;;;;;;;23.10;96.10;;;;;;5087669;28;39882;-61
2022/06/23 08:20:41;;;;;;;;;;;23.20;92.70;;;;;;5087178;27;36156;-61
2022/06/23 08:23:09;;;;;;;;;;;23.30;93.90;;;;;;5086988;27;37024;-60
2022/06/23 08:25:37;;;;;;;;;;;23.30;93.40;;;;;;5087328;28;37693;-61
2022/06/23 08:28:05;;;;;;;;;;;23.40;94.20;;;;;;5087298;27;37739;-61
2022/06/23 08:30:36;;;;;;;;;;;23.50;94.10;;;;;;5084313;27;37078;-61
2022/06/23 08:33:04;;;;;;;;;;;23.60;93.50;;;;;;5087737;27;35243;-61
2022/06/23 08:35:33;;;;;;;;;;;23.70;94.00;;;;;;5087370;27;37068;-59
2022/06/23 08:38:03;;;;;;;;;;;23.70;93.30;;;;;;5085898;27;36624;-61
2022/06/23 08:40:34;;;;;;;;;;;23.90;92.60;;;;;;5085864;27;37955;-61
2022/06/23 08:43:10;;;;;;;;;;;23.90;91.90;;;;;;5086792;27;37138;-61
2022/06/23 08:45:40;;;;;;;;;;;24.00;93.80;;;;;;5087109;27;37790;-61
2022/06/23 08:48:11;;;;;;;;;;;24.00;93.80;;;;;;5087802;27;38970;-61
2022/06/23 08:50:40;;;;;;;;;;;24.10;92.60;;;;;;5090714;27;36049;-61
2022/06/23 08:53:11;;;;;;;;;;;24.20;93.20;;;;;;5091326;27;36455;-61
2022/06/23 08:55:42;;;;;;;;;;;24.30;92.80;;;;;;5090215;27;38460;-61
2022/06/23 08:58:14;;;;;;;;;;;24.40;92.20;;;;;;5090728;27;37719;-61
2022/06/23 09:00:45;;;;;;;;;;;24.50;92.70;;;;;;5090323;27;35833;-61
2022/06/23 09:03:15;;;;;;;;;;;24.60;92.10;;;;;;5090667;27;35076;-61
2022/06/23 09:05:44;;;;;;;;;;;24.70;90.90;;;;;;5090001;27;37620;-61
2022/06/23 09:08:15;;;;;;;;;;;24.80;92.90;;;;;;5091002;27;37809;-62
2022/06/23 09:10:46;;;;;;;;;;;24.80;90.20;;;;;;5089001;27;37176;-61
2022/06/23 09:13:21;;;;;;;;;;;24.90;90.00;;;;;;5090340;27;36935;-61
2022/06/23 09:16:04;;;;;;;;;;;24.90;87.80;;;;;;5091090;27;38908;-61
2022/06/23 09:19:01;;;;;;;;;;;25.00;86.40;;;;;;5090397;28;39885;-61
2022/06/23 09:21:34;;;;;;;;;;;25.00;79.20;;;;;;5088070;28;34676;-61
2022/06/23 09:24:19;;;;;;;;;;;25.20;87.20;;;;;;5088711;27;36447;-61
2022/06/23 09:26:54;;;;;;;;;;;25.20;86.30;;;;;;5088292;27;38933;-61
2022/06/23 09:29:28;;;;;;;;;;;25.30;86.00;;;;;;5089772;27;38440;-62
2022/06/23 09:31:58;;;;;;;;;;;25.40;79.30;;;;;;5089820;27;37869;-61
2022/06/23 09:34:34;;;;;;;;;;;25.50;82.70;;;;;;5088919;28;35169;-62
2022/06/23 09:37:34;;;;;;;;;;;25.60;84.10;;;;;;5088964;27;38549;-61
2022/06/23 09:40:11;;;;;;;;;;;25.70;78.40;;;;;;5023703;28;37824;-62
2022/06/23 09:43:08;;;;;;;;;;;25.80;78.80;;;;;;5024795;28;37860;-61
2022/06/23 09:45:42;;;;;;;;;;;25.80;79.60;;;;;;5037469;28;37543;-61
2022/06/23 09:48:33;;;;;;;;;;;25.80;76.00;;;;;;5083476;27;37410;-62
2022/06/23 09:51:15;;;;;;;;;;;25.90;79.10;;;;;;5088853;27;38126;-62
2022/06/23 09:53:47;;;;;;;;;;;26.00;75.50;;;;;;5087236;28;35961;-62
2022/06/23 09:56:24;;;;;;;;;;;26.10;76.60;;;;;;5088642;27;35046;-61
2022/06/23 09:59:12;;;;;;;;;;;26.10;73.30;;;;;;5089101;27;36660;-62
2022/06/23 10:01:46;;;;;;;;;;;26.20;74.70;;;;;;5089566;27;38280;-61
2022/06/23 10:04:18;;;;;;;;;;;26.20;71.00;;;;;;5089476;27;38714;-62
2022/06/23 10:06:55;;;;;;;;;;;26.30;64.80;;;;;;5089461;27;37247;-62
2022/06/23 10:09:32;;;;;;;;;;;26.30;67.00;;;;;;5088393;27;39232;-62
2022/06/23 10:12:06;;;;;;;;;;;26.30;72.10;;;;;;5089084;27;40337;-62
2022/06/23 10:14:42;;;;;;;;;;;26.30;72.10;;;;;;5089018;27;39807;-61
2022/06/23 10:17:20;;;;;;;;;;;26.40;66.00;;;;;;5089607;27;36685;-62
2022/06/23 10:19:53;;;;;;;;;;;26.60;63.50;;;;;;5086091;27;37649;-62
2022/06/23 10:22:27;;;;;;;;;;;26.60;65.80;;;;;;5089529;27;40785;-62
2022/06/23 10:25:02;;;;;;;;;;;26.70;60.70;;;;;;5090542;27;38947;-62
2022/06/23 10:27:35;;;;;;;;;;;26.80;61.80;;;;;;5090513;28;36333;-62
2022/06/23 10:30:07;;;;;;;;;;;26.80;64.60;;;;;;5091030;27;38677;-62
2022/06/23 10:33:04;;;;;;;;;;;26.90;64.20;;;;;;5090817;27;38519;-62
2022/06/23 10:35:47;;;;;;;;;;;26.90;64.10;;;;;;5090999;27;35340;-62
2022/06/23 10:38:35;;;;;;;;;;;27.00;56.60;;;;;;5091687;27;35716;-63
2022/06/23 10:41:08;;;;;;;;;;;27.10;50.10;;;;;;5086988;27;36564;-62
2022/06/23 10:43:46;;;;;;;;;;;27.00;56.00;;;;;;5090904;27;39657;-62
2022/06/23 10:46:14;;;;;;;;;;;27.10;60.70;;;;;;5091836;27;37724;-62
2022/06/23 10:48:55;;;;;;;;;;;27.10;56.70;;;;;;5091463;27;36134;-63
2022/06/23 10:51:43;;;;;;;;;;;27.00;57.00;;;;;;5091320;27;37543;-62
2022/06/23 10:54:19;;;;;;;;;;;26.90;58.80;;;;;;5091406;27;38711;-60
2022/06/23 10:56:56;;;;;;;;;;;27.00;60.50;;;;;;5091791;27;36746;-62
2022/06/23 10:59:38;;;;;;;;;;;27.10;61.80;;;;;;5090512;27;37336;-62
2022/06/23 11:02:23;;;;;;;;;;;27.20;59.10;;;;;;5090409;27;37635;-62
2022/06/23 11:05:17;;;;;;;;;;;27.20;59.70;;;;;;5089904;27;39711;-63
2022/06/23 11:07:53;;;;;;;;;;;27.20;57.20;;;;;;5064803;27;37543;-62
2022/06/23 11:10:29;;;;;;;;;;;27.30;58.90;;;;;;5089487;27;37915;-62
2022/06/23 11:13:02;;;;;;;;;;;27.40;57.00;;;;;;5090635;27;38634;-62
2022/06/23 11:15:33;;;;;;;;;;;27.50;55.70;;;;;;5090516;27;37933;-62
2022/06/23 11:18:09;;;;;;;;;;;27.50;57.40;;;;;;5090399;28;36807;-63
2022/06/23 11:20:40;;;;;;;;;;;27.60;59.60;;;;;;5090938;27;38288;-62
2022/06/23 11:23:14;;;;;;;;;;;27.60;58.80;;;;;;5089083;28;37578;-62
2022/06/23 11:25:47;;;;;;;;;;;27.60;55.30;;;;;;5090141;28;37805;-62
2022/06/23 11:28:18;;;;;;;;;;;27.60;56.90;;;;;;5090644;27;37248;-62
2022/06/23 11:30:55;;;;;;;;;;;27.70;55.90;;;;;;5091021;27;37031;-62
2022/06/23 11:33:40;;;;;;;;;;;27.60;58.80;;;;;;5090149;28;38397;-62
2022/06/23 11:36:12;;;;;;;;;;;27.60;59.60;;;;;;5068142;27;37315;-62
2022/06/23 11:39:03;;;;;;;;;;;27.60;57.40;;;;;;5090808;27;35967;-62
2022/06/23 11:41:46;;;;;;;;;;;27.60;58.80;;;;;;5079763;27;37661;-62
2022/06/23 11:44:20;;;;;;;;;;;27.70;57.80;;;;;;5090199;28;36712;-63
2022/06/23 11:46:50;;;;;;;;;;;27.70;60.40;;;;;;5090351;27;38558;-62
2022/06/23 11:49:26;;;;;;;;;;;27.60;61.10;;;;;;5090171;27;38319;-62
2022/06/23 11:52:02;;;;;;;;;;;27.70;58.50;;;;;;5090229;27;35325;-63
2022/06/23 11:54:37;;;;;;;;;;;27.70;59.40;;;;;;5090021;27;37893;-62
2022/06/23 11:57:12;;;;;;;;;;;27.60;60.20;;;;;;5089727;27;38829;-62
2022/06/23 11:59:43;;;;;;;;;;;27.60;61.60;;;;;;5089801;27;37333;-62
2022/06/23 12:02:11;;;;;;;;;;;27.50;61.50;;;;;;5089826;27;35756;-62
2022/06/23 12:04:46;;;;;;;;;;;27.50;60.60;;;;;;5090363;27;37835;-62
2022/06/23 12:07:26;;;;;;;;;;;27.50;62.10;;;;;;5089025;27;37304;-62
2022/06/23 12:09:58;;;;;;;;;;;27.60;62.10;;;;;;5089883;27;37763;-62
2022/06/23 12:12:27;;;;;;;;;;;27.50;56.80;;;;;;5089758;27;35202;-62
2022/06/23 12:14:54;;;;;;;;;;;27.60;58.70;;;;;;5089426;28;36538;-62
2022/06/23 12:17:23;;;;;;;;;;;27.60;59.60;;;;;;5089498;27;38494;-62
2022/06/23 12:19:53;;;;;;;;;;;27.60;58.50;;;;;;5089082;27;37786;-62
2022/06/23 12:22:21;;;;;;;;;;;27.60;59.00;;;;;;5089912;27;34971;-63
2022/06/23 12:24:56;;;;;;;;;;;27.60;60.80;;;;;;5089775;27;36514;-62
2022/06/23 12:27:26;;;;;;;;;;;27.50;57.00;;;;;;5090229;27;36313;-62
2022/06/23 12:29:58;;;;;;;;;;;27.50;59.30;;;;;;5089529;27;37882;-62
2022/06/23 12:32:28;;;;;;;;;;;27.60;57.50;;;;;;5089550;27;35405;-62
2022/06/23 12:34:58;;;;;;;;;;;27.50;58.10;;;;;;5089339;27;37338;-62
2022/06/23 12:37:29;;;;;;;;;;;27.50;59.70;;;;;;5089176;28;37604;-62
2022/06/23 12:40:01;;;;;;;;;;;27.40;56.40;;;;;;5088736;27;37723;-62
2022/06/23 12:42:34;;;;;;;;;;;27.50;54.80;;;;;;5089415;28;36671;-62
2022/06/23 12:45:20;;;;;;;;;;;27.40;58.20;;;;;;5088939;27;38288;-62
2022/06/23 12:47:55;;;;;;;;;;;27.50;56.90;;;;;;5089561;27;37744;-62
2022/06/23 12:50:31;;;;;;;;;;;27.50;53.90;;;;;;5088261;27;37029;-62
2022/06/23 12:53:09;;;;;;;;;;;27.40;57.40;;;;;;5090587;27;36947;-62
2022/06/23 12:55:51;;;;;;;;;;;27.40;56.00;;;;;;5089434;27;38431;-62
2022/06/23 12:58:23;;;;;;;;;;;27.30;54.00;;;;;;5089295;28;37824;-62
2022/06/23 13:01:08;;;;;;;;;;;27.30;54.40;;;;;;5089760;28;36786;-63
2022/06/23 13:03:39;;;;;;;;;;;27.20;56.50;;;;;;5088282;28;36207;-62
2022/06/23 13:06:13;;;;;;;;;;;27.20;56.30;;;;;;5089400;27;38326;-62
2022/06/23 13:08:42;;;;;;;;;;;27.20;57.10;;;;;;5089790;27;38599;-62
2022/06/23 13:11:13;;;;;;;;;;;27.20;57.00;;;;;;5089079;27;38231;-62
2022/06/23 13:13:44;;;;;;;;;;;27.20;57.30;;;;;;5088755;27;36311;-61
2022/06/23 13:16:14;;;;;;;;;;;27.20;55.50;;;;;;5088948;27;38737;-63
2022/06/23 13:18:43;;;;;;;;;;;27.20;58.50;;;;;;5089802;27;38515;-62
2022/06/23 13:21:13;;;;;;;;;;;27.20;58.20;;;;;;5089903;27;36081;-62
2022/06/23 13:23:44;;;;;;;;;;;27.20;57.00;;;;;;5089952;27;38885;-62
2022/06/23 13:26:14;;;;;;;;;;;27.20;57.80;;;;;;5090313;27;36723;-63
2022/06/23 13:28:44;;;;;;;;;;;27.20;56.60;;;;;;5088233;27;37790;-62
2022/06/23 13:31:14;;;;;;;;;;;27.20;59.20;;;;;;5089245;27;37954;-62
2022/06/23 13:33:46;;;;;;;;;;;27.20;58.90;;;;;;5089616;27;37468;-62
2022/06/23 13:36:17;;;;;;;;;;;27.20;56.70;;;;;;5093661;27;36559;-62
2022/06/23 13:38:47;;;;;;;;;;;27.20;57.90;;;;;;5093783;27;39301;-63
2022/06/23 13:41:17;;;;;;;;;;;27.20;55.70;;;;;;5092392;27;37286;-63
2022/06/23 13:43:47;;;;;;;;;;;27.10;54.20;;;;;;5093312;27;36531;-62
2022/06/23 13:46:17;;;;;;;;;;;27.10;56.10;;;;;;5092798;28;38959;-62
2022/06/23 13:48:49;;;;;;;;;;;27.20;58.60;;;;;;5093131;27;38530;-62
2022/06/23 13:51:19;;;;;;;;;;;27.20;56.70;;;;;;5092516;27;36050;-62
2022/06/23 13:53:48;;;;;;;;;;;27.20;58.90;;;;;;5093431;27;36982;-63
2022/06/23 13:56:19;;;;;;;;;;;27.20;58.10;;;;;;5092867;28;38856;-62
2022/06/23 13:58:51;;;;;;;;;;;27.20;58.90;;;;;;5093535;27;38502;-63
2022/06/23 14:01:21;;;;;;;;;;;27.20;57.00;;;;;;5092437;27;37237;-62
2022/06/23 14:03:54;;;;;;;;;;;27.10;57.10;;;;;;5092679;27;36209;-62
2022/06/23 14:06:25;;;;;;;;;;;27.10;58.70;;;;;;5092122;27;38254;-62
2022/06/23 14:08:55;;;;;;;;;;;27.20;59.00;;;;;;5093434;27;38039;-62
2022/06/23 14:11:25;;;;;;;;;;;27.20;56.30;;;;;;5092864;27;36889;-61
2022/06/23 14:13:55;;;;;;;;;;;27.10;56.90;;;;;;5092299;27;37342;-63
2022/06/23 14:16:25;;;;;;;;;;;27.10;57.30;;;;;;5092798;27;37726;-62
2022/06/23 14:18:56;;;;;;;;;;;27.10;57.40;;;;;;5092342;27;38943;-62
2022/06/23 14:21:27;;;;;;;;;;;27.10;59.00;;;;;;5092141;27;37008;-63
2022/06/23 14:24:00;;;;;;;;;;;27.10;59.10;;;;;;5092994;27;36100;-63
2022/06/23 14:26:29;;;;;;;;;;;27.10;57.10;;;;;;5092493;27;38186;-63
2022/06/23 14:29:01;;;;;;;;;;;27.10;57.10;;;;;;5092435;27;38024;-62
2022/06/23 14:31:30;;;;;;;;;;;27.10;57.70;;;;;;5092647;27;37104;-63
2022/06/23 14:34:03;;;;;;;;;;;27.10;56.40;;;;;;5093298;27;36271;-62
2022/06/23 14:36:32;;;;;;;;;;;27.10;56.60;;;;;;5092493;27;37647;-62
2022/06/23 14:39:03;;;;;;;;;;;27.10;56.50;;;;;;5092659;27;38349;-62
2022/06/23 14:41:37;;;;;;;;;;;27.10;56.40;;;;;;5092040;27;38660;-63
2022/06/23 14:44:11;;;;;;;;;;;27.10;57.60;;;;;;5092250;27;37431;-62
2022/06/23 14:46:43;;;;;;;;;;;27.10;57.50;;;;;;5092066;27;39223;-63
2022/06/23 14:49:28;;;;;;;;;;;27.20;57.90;;;;;;5091509;27;38752;-63
2022/06/23 14:52:00;;;;;;;;;;;27.10;57.30;;;;;;5091536;27;37779;-62